Time;durP1;ratioP1;P1;durP2;ratioP2;P2;SDS_P1;SDS_P2;PMS_P1;PMS_P2;Temp;Humidity;BMP_temperature;BMP_pressure;BME280_temperature;BME280_humidity;BME280_pressure;Samples;Min_cycle;Max_cycle;Signal;HPM_P1;HPM_P2
2021/12/08 00:01:18;;;;;;;46.88;20.58;;;1.10;77.60;;;;;;4175676;28;20028;-80
2021/12/08 00:03:19;;;;;;;;;;;1.10;77.80;;;;;;4158160;28;20464;-80
2021/12/08 00:05:20;;;;;;;51.78;20.50;;;1.10;78.00;;;;;;4174921;28;19923;-79
2021/12/08 00:07:20;;;;;;;48.67;20.27;;;1.10;77.80;;;;;;4178882;28;20036;-80
2021/12/08 00:14:01;;;;;;;58.72;22.55;;;1.00;78.10;;;;;;4168161;28;20039;-80
2021/12/08 00:16:07;;;;;;;52.05;22.25;;;0.90;78.00;;;;;;4184085;28;20051;-79
2021/12/08 00:18:17;;;;;;;50.90;21.92;;;0.90;78.10;;;;;;4146607;28;20038;-80
2021/12/08 00:20:18;;;;;;;50.47;20.65;;;0.90;78.20;;;;;;4161458;28;20037;-80
2021/12/08 00:22:19;;;;;;;52.58;21.10;;;0.90;78.30;;;;;;4147997;28;20076;-80
2021/12/08 00:24:19;;;;;;;46.22;20.63;;;0.90;78.40;;;;;;4164954;28;20052;-80
2021/12/08 00:26:20;;;;;;;43.00;20.25;;;0.90;78.50;;;;;;4143963;28;20026;-80
2021/12/08 00:28:20;;;;;;;52.55;21.02;;;0.80;78.60;;;;;;4164126;28;20029;-80
2021/12/08 00:30:21;;;;;;;48.35;21.60;;;0.80;78.70;;;;;;4177007;28;20454;-80
2021/12/08 00:32:26;;;;;;;51.67;22.10;;;0.80;79.60;;;;;;4177840;28;20036;-80
2021/12/08 00:34:27;;;;;;;53.65;22.90;;;0.90;79.20;;;;;;4143187;28;20479;-80
2021/12/08 00:36:38;;;;;;;47.75;20.98;;;0.80;79.20;;;;;;4163632;28;20078;-80
2021/12/08 00:38:39;;;;;;;51.22;21.17;;;0.90;79.30;;;;;;4182217;28;20123;-79
2021/12/08 00:40:39;;;;;;;51.63;22.00;;;0.80;79.40;;;;;;4165845;28;20037;-79
2021/12/08 00:42:40;;;;;;;49.45;22.20;;;0.80;79.40;;;;;;4141010;28;20049;-79
2021/12/08 00:44:40;;;;;;;49.75;21.90;;;0.90;79.50;;;;;;4150880;28;20030;-80
2021/12/08 00:46:43;;;;;;;52.78;21.77;;;0.90;79.50;;;;;;4157489;28;20075;-80
2021/12/08 00:48:49;;;;;;;57.50;23.33;;;0.90;79.50;;;;;;4142036;28;20705;-81
2021/12/08 00:50:49;;;;;;;51.85;21.70;;;0.90;79.40;;;;;;4173351;28;20025;-81
2021/12/08 00:52:57;;;;;;;55.15;22.33;;;1.00;79.50;;;;;;4174238;28;20745;-81
2021/12/08 00:55:20;;;;;;;47.58;20.90;;;1.00;79.50;;;;;;4122783;28;20043;-81
2021/12/08 00:57:24;;;;;;;49.95;21.35;;;0.90;79.40;;;;;;4141825;28;20034;-81
2021/12/08 00:59:30;;;;;;;52.60;22.17;;;1.00;79.60;;;;;;4157996;28;20100;-81
2021/12/08 01:01:31;;;;;;;52.58;22.23;;;1.00;79.60;;;;;;4140271;28;20369;-81
2021/12/08 01:03:32;;;;;;;52.08;21.63;;;1.00;79.60;;;;;;4165004;28;20030;-81
2021/12/08 01:05:36;;;;;;;45.92;21.50;;;1.00;79.70;;;;;;4155213;28;20026;-83
2021/12/08 01:07:36;;;;;;;44.97;20.05;;;1.00;79.70;;;;;;4158984;28;20058;-82
2021/12/08 01:09:37;;;;;;;52.95;22.33;;;1.00;79.70;;;;;;4169560;28;20025;-82
2021/12/08 01:11:38;;;;;;;54.88;22.98;;;1.10;79.60;;;;;;4172261;28;20384;-83
2021/12/08 01:13:39;;;;;;;50.45;21.75;;;1.10;79.80;;;;;;4163673;28;20100;-83
2021/12/08 01:15:42;;;;;;;51.08;22.73;;;1.10;79.80;;;;;;4174039;28;20299;-83
2021/12/08 01:17:42;;;;;;;52.05;23.85;;;1.10;79.90;;;;;;4160739;28;20458;-82
2021/12/08 01:19:43;;;;;;;56.30;22.75;;;1.20;80.00;;;;;;4143491;28;20121;-82
2021/12/08 01:21:44;;;;;;;51.17;22.10;;;1.20;79.90;;;;;;4145999;28;20661;-82
2021/12/08 01:23:45;;;;;;;53.70;22.27;;;1.20;79.90;;;;;;4127410;28;20026;-82
2021/12/08 01:25:45;;;;;;;55.22;24.15;;;1.20;79.90;;;;;;4139078;28;20026;-82
2021/12/08 01:27:46;;;;;;;55.80;23.05;;;1.20;79.90;;;;;;4124128;28;20067;-81
2021/12/08 01:29:48;;;;;;;55.13;24.02;;;1.30;80.00;;;;;;4154272;28;20025;-80
2021/12/08 01:31:49;;;;;;;60.97;23.98;;;1.30;80.70;;;;;;4175384;28;20078;-80
2021/12/08 01:33:50;;;;;;;62.22;24.70;;;1.30;79.80;;;;;;4164612;28;20108;-80
2021/12/08 01:35:51;;;;;;;61.17;25.58;;;1.30;79.90;;;;;;4162866;28;20423;-80
2021/12/08 01:37:51;;;;;;;57.17;23.27;;;1.30;80.00;;;;;;4176414;28;20036;-79
2021/12/08 01:39:52;;;;;;;57.00;24.27;;;1.40;79.90;;;;;;4150902;28;20025;-80
2021/12/08 01:41:54;;;;;;;55.30;23.50;;;1.40;79.80;;;;;;4164132;28;20085;-80
2021/12/08 01:46:13;;;;;;;56.28;22.40;;;1.40;79.80;;;;;;4161704;28;20598;-80
2021/12/08 01:48:16;;;;;;;57.20;22.60;;;1.40;79.60;;;;;;4153039;28;20029;-78
2021/12/08 01:50:17;;;;;;;54.25;22.90;;;1.40;79.40;;;;;;4185815;28;20024;-80
2021/12/08 01:52:17;;;;;;;61.05;24.17;;;1.40;79.20;;;;;;4160075;28;20223;-80
2021/12/08 01:54:18;;;;;;;58.70;24.30;;;1.50;80.00;;;;;;4176016;28;20024;-78
2021/12/08 01:56:19;;;;;;;55.80;22.08;;;1.50;78.90;;;;;;4144548;28;20030;-80
2021/12/08 01:58:20;;;;;;;49.40;20.95;;;1.50;78.90;;;;;;4143181;28;20026;-80
2021/12/08 02:00:29;;;;;;;49.42;21.33;;;1.50;78.80;;;;;;4157966;28;20044;-79
2021/12/08 02:02:30;;;;;;;49.95;22.23;;;1.50;78.60;;;;;;4160107;28;20491;-81
2021/12/08 02:04:30;;;;;;;55.60;22.13;;;1.50;78.40;;;;;;4162699;28;20044;-80
2021/12/08 02:06:33;;;;;;;52.40;20.48;;;1.50;78.30;;;;;;4147227;28;20030;-80
2021/12/08 02:08:34;;;;;;;51.00;21.02;;;1.50;78.30;;;;;;4141920;28;20032;-80
2021/12/08 02:10:37;;;;;;;50.58;21.52;;;1.50;78.00;;;;;;4166597;28;20033;-80
2021/12/08 02:12:40;;;;;;;51.33;20.95;;;1.50;77.70;;;;;;4130469;28;20022;-80
2021/12/08 02:14:41;;;;;;;54.83;21.17;;;1.50;77.90;;;;;;4160453;28;20021;-81
2021/12/08 02:16:41;;;;;;;42.45;18.33;;;1.50;77.80;;;;;;4179579;28;20039;-81
2021/12/08 02:18:43;;;;;;;49.28;20.20;;;1.50;77.60;;;;;;4161764;28;20037;-80
2021/12/08 02:20:46;;;;;;;50.90;21.25;;;1.50;77.40;;;;;;4171618;28;20045;-79
2021/12/08 02:22:47;;;;;;;53.25;20.55;;;1.50;77.10;;;;;;4161594;28;20130;-79
2021/12/08 02:24:48;;;;;;;49.80;19.65;;;1.50;77.30;;;;;;4160479;28;20114;-80
2021/12/08 02:26:50;;;;;;;45.15;20.50;;;1.50;77.10;;;;;;4161938;28;20440;-80
2021/12/08 02:28:51;;;;;;;50.78;18.63;;;1.50;77.00;;;;;;4161120;28;20041;-80
2021/12/08 02:30:59;;;;;;;54.38;19.65;;;1.40;76.90;;;;;;4175168;28;20174;-81
2021/12/08 02:47:15;;;;;;;49.17;18.77;;;1.40;76.50;;;;;;4150466;28;20028;-79
2021/12/08 02:49:18;;;;;;;56.08;19.95;;;1.40;76.70;;;;;;4151265;28;20459;-80
2021/12/08 02:51:20;;;;;;;48.65;20.65;;;1.50;76.70;;;;;;4168133;28;20029;-81
2021/12/08 02:53:21;;;;;;;47.17;20.30;;;1.30;76.70;;;;;;4143764;28;20034;-81
2021/12/08 02:55:21;;;;;;;44.60;18.98;;;1.30;76.80;;;;;;4140454;28;20025;-81
2021/12/08 02:57:25;;;;;;;46.95;19.05;;;1.30;76.80;;;;;;4162667;28;21192;-80
2021/12/08 02:59:26;;;;;;;53.58;19.80;;;1.30;77.10;;;;;;4145479;28;20030;-81
2021/12/08 03:01:27;;;;;;;51.78;18.25;;;1.30;77.30;;;;;;4127847;28;20034;-80
2021/12/08 03:03:27;;;;;;;50.83;19.73;;;1.30;77.30;;;;;;4182841;28;20104;-80
2021/12/08 03:05:28;;;;;;;46.03;17.92;;;1.30;77.20;;;;;;4132864;28;20041;-81
2021/12/08 03:07:29;;;;;;;46.83;19.35;;;1.30;77.20;;;;;;4178062;28;20415;-81
2021/12/08 03:09:29;;;;;;;41.83;17.77;;;1.30;77.30;;;;;;4150384;28;20107;-81
2021/12/08 03:11:30;;;;;;;44.60;19.27;;;1.30;77.20;;;;;;4177118;28;20021;-81
2021/12/08 03:13:31;;;;;;;46.88;20.13;;;1.30;77.30;;;;;;4177110;28;20410;-82
2021/12/08 03:15:32;;;;;;;48.72;19.23;;;1.30;77.50;;;;;;4168858;28;20495;-81
2021/12/08 03:17:34;;;;;;;46.33;19.10;;;1.30;77.50;;;;;;4149349;28;20551;-81
2021/12/08 03:19:35;;;;;;;53.70;19.83;;;1.30;77.60;;;;;;4150315;28;20025;-82
2021/12/08 03:21:36;;;;;;;47.30;20.00;;;1.30;77.60;;;;;;4144189;28;20040;-82
2021/12/08 03:24:09;;;;;;;50.10;21.52;;;1.30;77.60;;;;;;4145736;28;20038;-81
2021/12/08 03:26:10;;;;;;;50.50;20.95;;;1.30;77.60;;;;;;4184220;28;20668;-81
2021/12/08 03:28:20;;;;;;;52.88;20.20;;;1.30;77.60;;;;;;4132386;28;20156;-81
2021/12/08 03:30:33;;;;;;;46.30;19.00;;;1.30;77.80;;;;;;4161910;28;20033;-81
2021/12/08 03:32:37;;;;;;;44.28;16.45;;;1.30;77.80;;;;;;4147967;28;20481;-81
2021/12/08 03:34:41;;;;;;;48.83;20.60;;;1.40;77.90;;;;;;4145794;28;20436;-82
2021/12/08 03:36:41;;;;;;;53.60;20.83;;;1.40;77.60;;;;;;4168463;28;20514;-82
2021/12/08 03:38:45;;;;;;;46.42;19.75;;;1.30;77.70;;;;;;4148010;28;20036;-83
2021/12/08 03:40:46;;;;;;;;;;;1.40;77.80;;;;;;4159594;28;20048;-83
2021/12/08 03:42:48;;;;;;;50.90;19.98;;;1.40;77.80;;;;;;4184864;28;19982;-83
2021/12/08 03:44:49;;;;;;;48.70;20.73;;;1.40;77.80;;;;;;4155212;28;20112;-81
2021/12/08 03:46:52;;;;;;;47.53;19.80;;;1.30;77.70;;;;;;4179364;28;20112;-82
2021/12/08 03:48:52;;;;;;;52.35;20.30;;;1.30;77.70;;;;;;4137665;28;20095;-82
2021/12/08 03:50:54;;;;;;;44.85;19.02;;;1.30;77.90;;;;;;4178017;28;20025;-81
2021/12/08 03:52:54;;;;;;;49.80;19.20;;;1.30;78.00;;;;;;4140010;28;20069;-82
2021/12/08 03:54:55;;;;;;;48.03;19.17;;;1.40;77.80;;;;;;4127345;28;20023;-82
2021/12/08 03:56:55;;;;;;;46.05;18.73;;;1.40;78.00;;;;;;4162901;28;20450;-82
2021/12/08 03:58:56;;;;;;;45.70;18.10;;;1.30;78.00;;;;;;4177228;28;20017;-82
2021/12/08 04:00:57;;;;;;;45.10;19.95;;;1.30;78.00;;;;;;4161650;28;20052;-81
2021/12/08 04:02:59;;;;;;;46.15;18.10;;;1.30;77.90;;;;;;4163665;28;20120;-81
2021/12/08 04:04:59;;;;;;;49.42;19.20;;;1.30;78.00;;;;;;4138571;28;20074;-81
2021/12/08 04:07:03;;;;;;;51.75;19.98;;;1.40;78.10;;;;;;4142827;28;20033;-81
2021/12/08 04:09:06;;;;;;;48.13;18.88;;;1.30;77.90;;;;;;4141885;28;20081;-80
2021/12/08 04:11:07;;;;;;;;;;;1.40;77.90;;;;;;4174118;28;20067;-80
2021/12/08 04:13:07;;;;;;;45.85;18.98;;;1.40;77.70;;;;;;4174041;28;19917;-83
2021/12/08 04:15:08;;;;;;;45.45;19.08;;;1.40;77.70;;;;;;4175965;28;20048;-83
2021/12/08 04:17:23;;;;;;;49.72;19.67;;;1.40;77.90;;;;;;4113436;28;20077;-83
2021/12/08 04:19:24;;;;;;;53.03;19.88;;;1.40;77.90;;;;;;4161124;28;20060;-83
2021/12/08 04:21:26;;;;;;;47.90;19.88;;;1.40;77.90;;;;;;4157254;28;20099;-82
2021/12/08 04:23:28;;;;;;;55.22;20.13;;;1.50;77.80;;;;;;4160170;28;20060;-82
2021/12/08 04:25:32;;;;;;;47.08;19.05;;;1.30;77.90;;;;;;4129567;28;20113;-83
2021/12/08 04:27:34;;;;;;;46.67;17.50;;;1.40;78.10;;;;;;4159231;28;20036;-81
2021/12/08 04:29:36;;;;;;;46.15;18.92;;;1.40;78.10;;;;;;4147957;28;20033;-82
2021/12/08 04:31:39;;;;;;;46.70;19.37;;;1.40;78.00;;;;;;4172445;28;20784;-82
2021/12/08 04:33:42;;;;;;;45.53;18.63;;;1.40;77.90;;;;;;4167177;28;20025;-83
2021/12/08 04:35:46;;;;;;;43.42;17.38;;;1.40;78.00;;;;;;4183071;28;20084;-86
2021/12/08 04:37:53;;;;;;;52.00;19.23;;;1.50;77.90;;;;;;4164969;28;20040;-85
2021/12/08 04:40:30;;;;;;;56.58;20.50;;;1.50;77.70;;;;;;4173751;28;20037;-86
2021/12/08 04:42:55;;;;;;;49.85;18.35;;;1.50;77.40;;;;;;4166468;28;20074;-85
2021/12/08 04:44:58;;;;;;;48.45;20.02;;;1.50;77.80;;;;;;4165710;28;20044;-85
2021/12/08 04:47:21;;;;;;;44.20;18.33;;;1.50;77.70;;;;;;4145653;28;20030;-83
2021/12/08 04:52:07;;;;;;;48.95;18.95;;;1.50;77.40;;;;;;4141954;28;20033;-85
2021/12/08 05:04:04;;;;;;;45.92;19.13;;;1.50;77.30;;;;;;4169032;28;20025;-85
2021/12/08 05:08:35;;;;;;;42.95;17.05;;;1.60;77.40;;;;;;4161993;28;20131;-83
2021/12/08 05:10:36;;;;;;;40.08;18.02;;;1.60;77.50;;;;;;4144092;28;20034;-83
2021/12/08 05:12:37;;;;;;;46.03;17.38;;;1.60;77.30;;;;;;4153945;28;20083;-82
2021/12/08 05:14:53;;;;;;;45.20;18.08;;;1.60;77.20;;;;;;4155350;28;20100;-82
2021/12/08 05:16:58;;;;;;;45.78;18.00;;;1.60;77.20;;;;;;4180649;28;20447;-83
2021/12/08 05:18:59;;;;;;;44.10;17.63;;;1.60;76.90;;;;;;4143476;28;20399;-83
2021/12/08 05:21:04;;;;;;;44.53;18.52;;;1.70;77.10;;;;;;4172646;28;20040;-82
2021/12/08 05:23:13;;;;;;;47.03;18.80;;;1.70;77.10;;;;;;4149588;28;20113;-83
2021/12/08 05:25:17;;;;;;;42.80;17.95;;;1.70;76.90;;;;;;4158270;28;20499;-82
2021/12/08 05:27:22;;;;;;;44.90;18.88;;;1.70;76.90;;;;;;4157294;28;20037;-83
2021/12/08 05:29:25;;;;;;;43.95;17.67;;;1.70;77.00;;;;;;4141596;28;20076;-82
2021/12/08 05:31:28;;;;;;;44.20;17.45;;;1.70;76.80;;;;;;4138236;28;20655;-83
2021/12/08 05:33:29;;;;;;;42.65;17.70;;;1.70;76.80;;;;;;4157907;28;21047;-82
2021/12/08 05:35:30;;;;;;;44.03;18.92;;;1.70;76.80;;;;;;4135982;28;20045;-82
2021/12/08 05:37:30;;;;;;;44.05;17.50;;;1.70;76.80;;;;;;4173927;28;20548;-82
2021/12/08 05:39:31;;;;;;;47.38;17.75;;;1.70;76.60;;;;;;4162000;28;20044;-82
2021/12/08 05:41:33;;;;;;;40.40;16.23;;;1.70;76.60;;;;;;4155270;28;20360;-82
2021/12/08 05:43:34;;;;;;;42.50;16.92;;;1.70;76.60;;;;;;4160705;28;20032;-81
2021/12/08 05:45:35;;;;;;;37.63;16.30;;;1.80;76.50;;;;;;4162057;28;20025;-81
2021/12/08 05:47:35;;;;;;;42.50;16.60;;;1.80;76.10;;;;;;4183780;28;20029;-80
2021/12/08 05:49:39;;;;;;;36.92;16.20;;;1.80;76.10;;;;;;4176405;28;20120;-81
2021/12/08 05:51:39;;;;;;;42.85;17.20;;;1.80;75.90;;;;;;4110940;28;20034;-80
2021/12/08 05:53:42;;;;;;;40.42;16.38;;;1.80;75.70;;;;;;4126010;28;20034;-81
2021/12/08 05:55:43;;;;;;;42.33;16.13;;;1.90;76.10;;;;;;4155912;28;20519;-81
2021/12/08 05:57:44;;;;;;;32.40;14.98;;;1.90;75.60;;;;;;4171680;28;20032;-81
2021/12/08 05:59:45;;;;;;;36.67;14.55;;;1.80;75.30;;;;;;4138538;28;20217;-80
2021/12/08 06:02:02;;;;;;;35.47;15.13;;;1.90;75.60;;;;;;4160817;28;20131;-81
2021/12/08 06:04:04;;;;;;;35.65;16.02;;;1.80;75.40;;;;;;4152484;28;20053;-81
2021/12/08 06:06:05;;;;;;;37.00;15.82;;;1.80;74.90;;;;;;4111902;28;20033;-80
2021/12/08 06:08:05;;;;;;;37.50;14.75;;;1.80;74.80;;;;;;4145597;28;20519;-81
2021/12/08 06:10:09;;;;;;;37.45;14.32;;;1.80;74.70;;;;;;4158584;28;20044;-80
2021/12/08 06:12:10;;;;;;;34.15;14.57;;;1.80;74.40;;;;;;4158461;28;20080;-80
2021/12/08 06:14:11;;;;;;;38.25;15.18;;;1.80;74.40;;;;;;4180137;22;20040;-63
2021/12/08 06:16:13;;;;;;;43.05;16.27;;;1.80;74.20;;;;;;4182688;28;20033;-64
2021/12/08 06:18:14;;;;;;;35.85;15.25;;;1.80;74.10;;;;;;4164527;28;20159;-63
2021/12/08 06:20:15;;;;;;;32.75;14.30;;;1.80;74.10;;;;;;4167337;28;20157;-63
2021/12/08 06:22:17;;;;;;;38.75;14.57;;;1.80;74.20;;;;;;4170717;28;20090;-63
2021/12/08 06:24:20;;;;;;;39.92;16.17;;;1.80;74.50;;;;;;4148440;28;20030;-63
2021/12/08 06:26:23;;;;;;;33.80;15.82;;;1.80;74.70;;;;;;4165673;28;20032;-64
2021/12/08 06:28:24;;;;;;;40.08;16.30;;;1.70;75.00;;;;;;4150153;28;21521;-63
2021/12/08 06:30:27;;;;;;;40.90;15.75;;;1.70;75.20;;;;;;4168649;28;20037;-64
2021/12/08 06:32:28;;;;;;;;;;;1.70;75.40;;;;;;4151220;28;20022;-63
2021/12/08 06:34:28;;;;;;;36.58;15.40;;;1.60;75.70;;;;;;4169754;28;19959;-64
2021/12/08 06:36:32;;;;;;;37.45;15.93;;;1.60;75.80;;;;;;4167023;28;20044;-64
2021/12/08 06:38:32;;;;;;;;;;;1.60;76.00;;;;;;4166812;28;20043;-63
2021/12/08 06:40:39;;;;;;;41.10;16.70;;;1.50;76.50;;;;;;4161912;28;19954;-63
2021/12/08 06:42:40;;;;;;;34.85;15.73;;;1.50;76.70;;;;;;4166240;28;20120;-63
2021/12/08 06:44:43;;;;;;;40.38;17.60;;;1.40;77.00;;;;;;4164125;28;20032;-63
2021/12/08 06:46:44;;;;;;;;;;;1.30;77.50;;;;;;4167358;28;20025;-63
2021/12/08 06:48:54;;;;;;;37.83;16.50;;;1.30;77.90;;;;;;4164498;28;19921;-63
2021/12/08 06:51:01;;;;;;;34.38;15.70;;;1.20;78.70;;;;;;4145026;28;20048;-63
2021/12/08 06:53:02;;;;;;;38.95;16.92;;;1.20;78.20;;;;;;4158788;28;20030;-63
2021/12/08 06:55:17;;;;;;;40.60;17.17;;;1.20;78.50;;;;;;4165812;28;20108;-63
2021/12/08 06:57:27;;;;;;;35.58;16.35;;;1.10;78.60;;;;;;4168727;28;20319;-63
2021/12/08 06:59:34;;;;;;;38.03;16.63;;;1.10;78.90;;;;;;4160419;28;20082;-62
2021/12/08 07:02:04;;;;;;;41.92;16.10;;;1.00;79.00;;;;;;4161775;28;20040;-62
2021/12/08 07:04:26;;;;;;;40.15;16.75;;;1.00;79.30;;;;;;4171893;28;20025;-62
2021/12/08 07:08:44;;;;;;;38.83;17.30;;;0.90;79.90;;;;;;4169647;28;20020;-64
2021/12/08 07:10:46;;;;;;;43.40;18.63;;;0.90;80.20;;;;;;4167195;28;20033;-62
2021/12/08 07:12:54;;;;;;;43.42;18.60;;;0.80;80.50;;;;;;4170901;28;20024;-63
2021/12/08 07:14:59;;;;;;;39.45;17.48;;;0.80;80.80;;;;;;4148029;28;20108;-61
2021/12/08 07:17:03;;;;;;;51.33;19.27;;;0.80;81.10;;;;;;4168810;28;20545;-61
2021/12/08 07:19:34;;;;;;;45.35;17.83;;;0.70;81.30;;;;;;4165205;28;20170;-62
2021/12/08 07:21:38;;;;;;;44.70;18.17;;;0.80;81.60;;;;;;4165573;28;20048;-62
2021/12/08 07:24:02;;;;;;;46.35;18.60;;;0.80;81.70;;;;;;4169019;28;20045;-62
2021/12/08 07:26:18;;;;;;;45.17;18.35;;;0.70;81.70;;;;;;4171087;28;20404;-62
2021/12/08 07:28:19;;;;;;;47.25;18.58;;;0.70;81.80;;;;;;4166406;28;20059;-62
2021/12/08 07:30:23;;;;;;;43.08;18.55;;;0.70;82.00;;;;;;4163641;28;20021;-62
2021/12/08 07:32:29;;;;;;;47.20;18.10;;;0.70;82.20;;;;;;4144349;28;20033;-62
2021/12/08 07:34:32;;;;;;;46.05;18.45;;;0.70;82.30;;;;;;4171240;28;20029;-62
2021/12/08 07:36:34;;;;;;;43.30;18.30;;;0.70;82.50;;;;;;4165060;28;20040;-62
2021/12/08 07:38:35;;;;;;;41.67;18.95;;;0.70;82.60;;;;;;4163337;28;20509;-62
2021/12/08 07:40:44;;;;;;;48.60;18.75;;;0.60;82.60;;;;;;4166642;28;20099;-61
2021/12/08 07:42:48;;;;;;;41.60;17.75;;;0.60;82.70;;;;;;4167004;28;20025;-63
2021/12/08 07:44:52;;;;;;;44.20;18.45;;;0.70;83.70;;;;;;4170868;28;20497;-62
2021/12/08 07:47:03;;;;;;;44.45;18.80;;;0.70;83.00;;;;;;4169142;28;20108;-62
2021/12/08 07:49:24;;;;;;;41.60;18.00;;;0.70;83.10;;;;;;4164892;28;20128;-62
2021/12/08 07:51:31;;;;;;;39.22;17.60;;;0.60;83.10;;;;;;4165869;28;20086;-62
2021/12/08 07:53:32;;;;;;;38.20;16.30;;;0.60;83.20;;;;;;4167338;28;20626;-63
2021/12/08 07:55:39;;;;;;;44.13;16.90;;;0.60;83.30;;;;;;4168744;28;20029;-62
2021/12/08 07:57:40;;;;;;;40.30;17.33;;;0.60;83.50;;;;;;4165174;28;20094;-62
2021/12/08 07:59:41;;;;;;;44.10;18.83;;;0.70;83.60;;;;;;4169382;28;20033;-62
2021/12/08 08:01:47;;;;;;;41.07;16.90;;;0.70;83.60;;;;;;4168717;28;20072;-61
2021/12/08 08:03:47;;;;;;;42.33;17.30;;;0.70;83.70;;;;;;4160111;28;20041;-62
2021/12/08 08:05:49;;;;;;;41.42;17.25;;;0.70;83.90;;;;;;4170276;28;20039;-62
2021/12/08 08:07:50;;;;;;;41.28;16.42;;;0.70;83.90;;;;;;4171142;28;20071;-62
2021/12/08 08:09:59;;;;;;;39.08;17.70;;;0.70;83.80;;;;;;4168319;28;20029;-63
2021/12/08 08:12:01;;;;;;;40.13;16.95;;;0.80;83.90;;;;;;4165830;28;20032;-62
2021/12/08 08:14:01;;;;;;;38.63;17.50;;;0.80;83.90;;;;;;4166424;28;20033;-62
2021/12/08 08:16:06;;;;;;;38.63;17.27;;;0.80;83.80;;;;;;4166842;28;20026;-62
2021/12/08 08:18:09;;;;;;;39.90;16.42;;;0.80;83.90;;;;;;4172477;28;20041;-61
2021/12/08 08:20:30;;;;;;;;;;;0.80;83.90;;;;;;4164217;28;20033;-62
2021/12/08 08:22:31;;;;;;;38.08;17.08;;;0.80;84.10;;;;;;4184785;22;19929;-82
2021/12/08 08:24:31;;;;;;;41.47;16.90;;;0.80;84.10;;;;;;4143400;28;20030;-82
2021/12/08 08:26:32;;;;;;;41.75;17.63;;;0.80;84.00;;;;;;4112388;28;20079;-82
2021/12/08 08:28:33;;;;;;;43.60;18.25;;;0.80;84.00;;;;;;4130979;28;20034;-82
2021/12/08 08:30:38;;;;;;;37.97;16.60;;;0.90;84.10;;;;;;4142378;28;20033;-82
2021/12/08 08:32:39;;;;;;;37.30;16.13;;;0.80;84.10;;;;;;4113330;28;20033;-82
2021/12/08 08:34:43;;;;;;;44.72;17.63;;;0.80;84.10;;;;;;4149786;28;20026;-82
2021/12/08 08:36:44;;;;;;;;;;;0.90;84.10;;;;;;4146334;28;20026;-81
2021/12/08 08:38:56;;;;;;;37.33;16.80;;;0.90;84.10;;;;;;4142364;28;19913;-82
2021/12/08 08:41:05;;;;;;;35.88;16.70;;;0.90;84.00;;;;;;4128117;28;20109;-83
2021/12/08 08:43:06;;;;;;;37.22;18.02;;;0.90;84.00;;;;;;4142285;28;20044;-81
2021/12/08 08:45:07;;;;;;;34.25;16.45;;;0.90;83.90;;;;;;4110913;28;20034;-81
2021/12/08 08:47:11;;;;;;;37.80;16.05;;;0.90;83.90;;;;;;4164446;28;20069;-81
2021/12/08 08:49:14;;;;;;;34.03;16.05;;;0.90;83.90;;;;;;4134869;28;20066;-82
2021/12/08 08:51:19;;;;;;;39.25;16.35;;;1.00;83.90;;;;;;4130724;28;20027;-82
2021/12/08 08:53:20;;;;;;;40.25;17.92;;;1.00;83.90;;;;;;4111725;28;20035;-82
2021/12/08 08:55:28;;;;;;;37.95;16.50;;;1.00;83.80;;;;;;4143906;28;20042;-82
2021/12/08 08:57:34;;;;;;;41.45;18.55;;;1.00;83.70;;;;;;4147394;28;20097;-82
2021/12/08 08:59:40;;;;;;;34.85;15.50;;;1.00;83.50;;;;;;4130083;28;20547;-82
2021/12/08 09:01:43;;;;;;;37.78;15.40;;;1.00;83.40;;;;;;4124915;28;20023;-82
2021/12/08 09:03:51;;;;;;;36.70;16.13;;;1.00;83.30;;;;;;4161058;28;20025;-83
2021/12/08 09:05:59;;;;;;;36.20;15.93;;;1.00;83.20;;;;;;4140950;28;20072;-82
2021/12/08 09:08:00;;;;;;;31.98;15.15;;;1.00;83.00;;;;;;4141083;28;20022;-82
2021/12/08 09:10:07;;;;;;;32.50;14.95;;;1.00;82.90;;;;;;4158180;28;20068;-82
2021/12/08 09:12:15;;;;;;;31.83;15.40;;;1.00;82.60;;;;;;4146322;28;20065;-82
2021/12/08 09:14:32;;;;;;;31.52;14.63;;;1.00;82.50;;;;;;4130119;28;20026;-82
2021/12/08 09:16:47;;;;;;;32.75;14.68;;;1.00;82.40;;;;;;4143545;28;20038;-81
2021/12/08 09:19:05;;;;;;;40.10;16.30;;;1.00;82.20;;;;;;4146284;28;20137;-81
2021/12/08 09:21:16;;;;;;;33.97;14.55;;;1.00;82.10;;;;;;4115730;28;20041;-82
2021/12/08 09:23:22;;;;;;;34.17;15.77;;;1.00;81.90;;;;;;4130955;28;20035;-82
2021/12/08 09:25:43;;;;;;;33.47;14.60;;;1.00;81.90;;;;;;4143259;28;20477;-81
2021/12/08 09:27:48;;;;;;;35.17;14.88;;;1.00;82.00;;;;;;4137895;28;20033;-81
2021/12/08 09:29:55;;;;;;;31.63;14.93;;;1.00;82.00;;;;;;4142804;28;20500;-81
2021/12/08 09:32:08;;;;;;;30.83;14.77;;;0.90;82.00;;;;;;4130459;28;20030;-82
2021/12/08 09:34:22;;;;;;;31.77;14.60;;;1.00;82.10;;;;;;4128947;28;20160;-82
2021/12/08 09:36:33;;;;;;;33.92;14.68;;;1.00;82.10;;;;;;4126690;28;20420;-82
2021/12/08 09:38:35;;;;;;;31.20;14.63;;;1.00;82.20;;;;;;4095068;28;20501;-82
2021/12/08 09:41:06;;;;;;;34.43;16.17;;;1.00;82.30;;;;;;4126866;28;20046;-81
2021/12/08 09:43:14;;;;;;;33.33;14.20;;;1.00;82.40;;;;;;4142317;28;20109;-82
2021/12/08 09:45:51;;;;;;;32.20;13.57;;;1.00;82.40;;;;;;4141198;28;20026;-82
2021/12/08 09:47:52;;;;;;;32.42;14.57;;;1.00;82.50;;;;;;4160490;28;20041;-81
2021/12/08 09:49:53;;;;;;;31.20;14.48;;;1.00;82.50;;;;;;4126608;28;20042;-82
2021/12/08 09:51:55;;;;;;;33.45;13.93;;;1.10;83.30;;;;;;4160364;28;20049;-82
2021/12/08 09:53:56;;;;;;;31.53;13.93;;;1.10;82.60;;;;;;4128707;28;21002;-82
2021/12/08 09:55:57;;;;;;;31.55;15.18;;;1.20;82.70;;;;;;4124342;28;20297;-82
2021/12/08 09:57:58;;;;;;;32.53;14.73;;;1.10;82.50;;;;;;4160300;28;20037;-82
2021/12/08 09:59:58;;;;;;;33.17;14.70;;;1.20;82.60;;;;;;4099217;29;20490;-83
2021/12/08 10:02:02;;;;;;;33.70;14.70;;;1.10;82.50;;;;;;4122844;28;20032;-83
2021/12/08 10:04:03;;;;;;;29.90;14.18;;;1.20;82.50;;;;;;4125137;28;20106;-83
2021/12/08 10:06:04;;;;;;;31.60;14.75;;;1.20;82.60;;;;;;4139948;28;20034;-83
2021/12/08 10:08:05;;;;;;;34.20;14.20;;;1.20;82.50;;;;;;4129221;28;20031;-82
2021/12/08 10:10:07;;;;;;;30.48;14.55;;;1.20;82.60;;;;;;4128598;28;20027;-82
2021/12/08 10:12:08;;;;;;;31.73;14.02;;;1.20;82.50;;;;;;4143051;28;20025;-83
2021/12/08 10:14:09;;;;;;;33.85;15.23;;;1.20;82.60;;;;;;4099287;28;20035;-82
2021/12/08 10:16:09;;;;;;;29.48;13.73;;;1.30;82.60;;;;;;4160344;28;20135;-82
2021/12/08 10:18:10;;;;;;;30.25;14.40;;;1.30;82.60;;;;;;4131748;28;20042;-82
2021/12/08 10:20:13;;;;;;;27.95;14.05;;;1.30;82.50;;;;;;4159765;28;20037;-82
2021/12/08 10:22:20;;;;;;;35.08;14.77;;;1.30;82.50;;;;;;4144056;28;20041;-83
2021/12/08 10:24:26;;;;;;;32.72;14.93;;;1.30;82.30;;;;;;4134782;28;20101;-82
2021/12/08 10:26:28;;;;;;;30.70;14.38;;;1.30;82.30;;;;;;4130063;28;20125;-83
2021/12/08 10:28:36;;;;;;;32.40;14.85;;;1.30;82.10;;;;;;4134622;28;20073;-83
2021/12/08 10:30:47;;;;;;;32.22;14.35;;;1.30;82.20;;;;;;4146885;28;20287;-83
2021/12/08 10:32:49;;;;;;;34.75;14.70;;;1.30;82.10;;;;;;4128398;28;20026;-83
2021/12/08 10:35:06;;;;;;;29.00;13.35;;;1.30;82.20;;;;;;4144791;28;20038;-82
2021/12/08 10:37:08;;;;;;;25.25;13.15;;;1.40;82.20;;;;;;4114340;28;20030;-82
2021/12/08 10:39:18;;;;;;;34.22;14.40;;;1.40;82.10;;;;;;4143861;28;20098;-83
2021/12/08 10:41:19;;;;;;;31.35;14.75;;;1.40;82.10;;;;;;4164586;28;20030;-83
2021/12/08 10:43:20;;;;;;;34.83;16.05;;;1.40;82.20;;;;;;4167226;28;20087;-82
2021/12/08 10:45:23;;;;;;;28.55;14.25;;;1.40;82.20;;;;;;4134434;28;20036;-83
2021/12/08 10:47:43;;;;;;;33.10;15.95;;;1.40;82.20;;;;;;4128194;28;20827;-82
2021/12/08 10:54:30;;;;;;;31.02;14.30;;;1.40;82.30;;;;;;4160744;28;20021;-82
2021/12/08 10:56:38;;;;;;;30.98;13.73;;;1.40;82.20;;;;;;4129096;28;20046;-82
2021/12/08 10:58:43;;;;;;;31.45;14.60;;;1.50;82.30;;;;;;4144082;28;20073;-82
2021/12/08 11:00:43;;;;;;;32.60;14.90;;;1.40;82.20;;;;;;4158174;28;20037;-81
2021/12/08 11:02:45;;;;;;;29.85;13.15;;;1.50;82.30;;;;;;4164363;28;20045;-81
2021/12/08 11:04:46;;;;;;;28.42;14.50;;;1.50;82.40;;;;;;4159765;28;20044;-81
2021/12/08 11:06:47;;;;;;;31.88;14.13;;;1.50;83.20;;;;;;4163310;28;20034;-81
2021/12/08 11:08:54;;;;;;;32.80;14.43;;;1.60;83.30;;;;;;4160406;28;20036;-81
2021/12/08 11:11:20;;;;;;;26.40;13.77;;;1.60;82.60;;;;;;4164201;28;20033;-81
2021/12/08 11:13:24;;;;;;;38.13;15.48;;;1.60;82.60;;;;;;4162958;28;20030;-81
2021/12/08 11:15:25;;;;;;;32.92;16.05;;;1.70;82.60;;;;;;4149597;28;20049;-81
2021/12/08 11:17:26;;;;;;;38.58;14.07;;;1.70;82.60;;;;;;4147297;28;20034;-81
2021/12/08 11:19:28;;;;;;;40.38;18.90;;;1.70;82.50;;;;;;4126134;28;20045;-81
2021/12/08 11:21:35;;;;;;;35.58;16.17;;;1.70;82.50;;;;;;4139291;28;20054;-81
2021/12/08 11:23:47;;;;;;;31.13;16.02;;;1.80;82.40;;;;;;4127247;28;20023;-81
2021/12/08 11:25:51;;;;;;;29.90;14.27;;;1.90;82.40;;;;;;4144417;28;20164;-81